Terminal Aerodrome Forecast
Issued by NWS Bismarck, ND

Home | Current Version | Previous Version | Text Only | Print | Product List | Glossary Off
Versions: 1 2 3 4 5 6 7 8 9 10 11 12 13 14 15 16 17 18 19 20 21 22 23 24 25 26

000
FTUS43 KBIS 032221 AAC
TAFISN
TAF AMD
KISN 032221Z 0322/0418 22008KT P6SM VCSH BKN060
      TEMPO 0322/0324 2SM -SN SCT015 BKN035
     FM040000 25008KT P6SM OVC015
     FM040700 26007KT P6SM BKN035
     FM040900 24006KT P6SM SCT090=

USA.gov is the U.S. government's official web portal to all federal, state and local government web resources and services.